createdAt,value
2022-09-18T00:03:54.751Z,10.20
2022-09-18T00:06:24.410Z,10.20
2022-09-18T00:08:53.389Z,10.00
2022-09-18T00:11:22.751Z,10.20
2022-09-18T00:13:50.110Z,10.10
2022-09-18T00:16:19.028Z,10.10
2022-09-18T00:18:46.538Z,10.10
2022-09-18T00:23:42.651Z,10.10
2022-09-18T00:26:11.323Z,10.10
2022-09-18T00:28:38.918Z,10.10
2022-09-18T00:31:17.687Z,10.10
2022-09-18T00:33:45.273Z,9.90
2022-09-18T00:36:14.900Z,10.00
2022-09-18T00:38:42.635Z,10.00
2022-09-18T00:41:16.936Z,10.00
2022-09-18T00:43:44.735Z,9.90
2022-09-18T00:46:26.697Z,9.90
2022-09-18T00:49:20.873Z,9.90
2022-09-18T00:51:50.823Z,9.90
2022-09-18T00:54:43.842Z,9.80
2022-09-18T00:57:19.196Z,9.80
2022-09-18T00:59:48.133Z,9.70
2022-09-18T01:02:15.892Z,9.80
2022-09-18T01:04:43.375Z,9.70
2022-09-18T01:07:29.102Z,9.80
2022-09-18T01:12:45.220Z,9.70
2022-09-18T01:15:37.553Z,9.60
2022-09-18T01:18:23.263Z,9.70
2022-09-18T01:20:54.705Z,9.60
2022-09-18T01:23:27.699Z,9.60
2022-09-18T01:26:18.882Z,9.60
2022-09-18T01:29:03.333Z,9.60
2022-09-18T01:31:38.346Z,9.60
2022-09-18T01:34:46.676Z,9.60
2022-09-18T01:37:29.948Z,9.60
2022-09-18T01:40:20.084Z,9.60
2022-09-18T01:42:49.360Z,9.60
2022-09-18T01:45:26.396Z,9.60
2022-09-18T01:48:00.159Z,9.60
2022-09-18T01:50:31.041Z,9.60
2022-09-18T01:53:16.258Z,9.60
2022-09-18T01:55:48.534Z,9.60
2022-09-18T01:58:19.075Z,9.50
2022-09-18T02:01:00.011Z,9.50
2022-09-18T02:03:31.506Z,9.50
2022-09-18T02:06:07.853Z,9.50
2022-09-18T02:08:43.579Z,9.50
2022-09-18T02:11:15.552Z,9.50
2022-09-18T02:13:58.051Z,9.40
2022-09-18T02:16:32.158Z,9.40
2022-09-18T02:19:08.252Z,9.30
2022-09-18T02:21:36.840Z,9.20
2022-09-18T02:24:07.352Z,9.20
2022-09-18T02:26:36.967Z,9.20
2022-09-18T02:29:06.614Z,9.20
2022-09-18T02:31:34.161Z,9.10
2022-09-18T02:34:01.109Z,9.00
2022-09-18T02:36:49.406Z,9.00
2022-09-18T02:39:37.548Z,8.90
2022-09-18T02:42:20.246Z,8.80
2022-09-18T02:45:00.879Z,8.80
2022-09-18T02:47:40.447Z,8.70
2022-09-18T02:50:28.002Z,8.60
2022-09-18T02:53:21.371Z,8.60
2022-09-18T02:55:56.278Z,8.50
2022-09-18T02:58:35.301Z,8.40
2022-09-18T03:01:06.394Z,8.40
2022-09-18T03:03:38.419Z,8.30
2022-09-18T03:06:09.332Z,8.20
2022-09-18T03:08:36.869Z,8.20
2022-09-18T03:11:04.325Z,8.20
2022-09-18T03:13:31.399Z,8.10
2022-09-18T03:15:58.852Z,8.00
2022-09-18T03:18:26.127Z,8.10
2022-09-18T03:20:53.016Z,8.00
2022-09-18T03:23:20.380Z,8.00
2022-09-18T03:25:50.305Z,7.90
2022-09-18T03:28:17.908Z,7.90
2022-09-18T03:30:45.550Z,7.80
2022-09-18T03:33:12.460Z,7.80
2022-09-18T03:35:39.421Z,7.70
2022-09-18T03:38:06.936Z,7.70
2022-09-18T03:40:33.956Z,7.60
2022-09-18T03:43:00.919Z,7.60
2022-09-18T03:45:28.806Z,7.60
2022-09-18T03:47:55.670Z,7.50
2022-09-18T03:50:22.510Z,7.50
2022-09-18T03:52:51.468Z,7.50
2022-09-18T03:55:18.711Z,7.50
2022-09-18T03:57:47.085Z,7.50
2022-09-18T04:00:15.252Z,7.50
2022-09-18T04:02:43.032Z,7.40
2022-09-18T04:05:10.047Z,7.40
2022-09-18T04:07:37.523Z,7.40
2022-09-18T04:10:04.843Z,7.40
2022-09-18T04:12:31.803Z,7.40
2022-09-18T04:14:58.884Z,7.40
2022-09-18T04:17:25.764Z,7.40
2022-09-18T04:19:53.777Z,7.30
2022-09-18T04:22:22.383Z,7.30
2022-09-18T04:24:50.485Z,7.30
2022-09-18T04:27:17.806Z,7.30
2022-09-18T04:29:45.173Z,7.30
2022-09-18T04:32:12.164Z,7.30
2022-09-18T04:34:39.094Z,7.30
2022-09-18T04:37:10.154Z,7.30
2022-09-18T04:39:37.556Z,7.30
2022-09-18T04:42:05.444Z,7.30
2022-09-18T04:44:32.500Z,7.40
2022-09-18T04:46:59.394Z,7.30
2022-09-18T04:49:26.331Z,7.40
2022-09-18T04:51:53.450Z,7.30
2022-09-18T04:54:20.318Z,7.40
2022-09-18T04:56:47.298Z,7.40
2022-09-18T04:59:14.416Z,7.40
2022-09-18T05:01:41.374Z,7.40
2022-09-18T05:04:08.728Z,7.40
2022-09-18T05:06:35.800Z,7.40
2022-09-18T05:09:02.921Z,7.40
2022-09-18T05:11:29.924Z,7.40
2022-09-18T05:13:58.169Z,7.50
2022-09-18T05:16:25.661Z,7.50
2022-09-18T05:18:53.334Z,7.60
2022-09-18T05:21:20.698Z,7.60
2022-09-18T05:23:48.035Z,7.60
2022-09-18T05:26:15.518Z,7.70
2022-09-18T05:28:42.878Z,7.70
2022-09-18T05:31:10.046Z,7.80
2022-09-18T05:33:38.720Z,7.90
2022-09-18T05:36:06.361Z,7.90
2022-09-18T05:38:33.260Z,8.00
2022-09-18T05:41:01.812Z,8.00
2022-09-18T05:43:29.703Z,8.10
2022-09-18T05:45:57.333Z,8.10
2022-09-18T05:48:24.373Z,8.20
2022-09-18T05:50:52.142Z,8.30
2022-09-18T05:53:21.058Z,8.40
2022-09-18T05:55:48.214Z,8.50
2022-09-18T05:58:17.255Z,8.60
2022-09-18T06:00:45.130Z,8.70
2022-09-18T06:03:16.422Z,8.80
2022-09-18T06:05:50.831Z,8.90
2022-09-18T06:08:17.740Z,9.00
2022-09-18T06:10:45.049Z,9.10
2022-09-18T06:13:15.668Z,9.20
2022-09-18T06:15:48.670Z,9.30
2022-09-18T06:18:16.171Z,9.50
2022-09-18T06:20:43.971Z,9.60
2022-09-18T06:23:10.932Z,9.80
2022-09-18T06:25:38.179Z,10.00
2022-09-18T06:28:06.568Z,10.00
2022-09-18T06:30:35.678Z,10.20
2022-09-18T06:33:09.293Z,10.60
2022-09-18T06:35:38.328Z,10.90
2022-09-18T06:38:06.782Z,11.20
2022-09-18T06:40:34.335Z,11.40
2022-09-18T06:43:02.815Z,11.60
2022-09-18T06:45:31.153Z,11.80
2022-09-18T06:48:02.705Z,12.20
2022-09-18T06:50:29.977Z,12.90
2022-09-18T06:53:02.642Z,13.20
2022-09-18T06:55:29.777Z,13.20
2022-09-18T06:57:57.644Z,13.20
2022-09-18T07:00:25.976Z,12.90
2022-09-18T07:03:00.574Z,13.10
2022-09-18T07:05:29.475Z,13.20
2022-09-18T07:07:56.537Z,13.00
2022-09-18T07:10:23.767Z,13.20
2022-09-18T07:12:59.402Z,13.20
2022-09-18T07:15:27.064Z,12.90
2022-09-18T07:18:01.051Z,12.60
2022-09-18T07:20:29.458Z,12.60
2022-09-18T07:23:00.520Z,12.90
2022-09-18T07:25:29.487Z,12.70
2022-09-18T07:28:01.520Z,12.40
2022-09-18T07:30:28.634Z,12.30
2022-09-18T07:32:55.499Z,12.20
2022-09-18T07:35:22.344Z,12.00
2022-09-18T07:37:49.416Z,12.10
2022-09-18T07:40:16.417Z,12.60
2022-09-18T07:42:43.310Z,13.40
2022-09-18T07:45:10.487Z,14.60
2022-09-18T07:47:37.374Z,15.60
2022-09-18T07:50:04.510Z,15.90
2022-09-18T07:52:32.067Z,15.50
2022-09-18T07:54:59.192Z,15.00
2022-09-18T07:57:26.162Z,14.70
2022-09-18T07:59:53.961Z,15.30
2022-09-18T08:02:20.887Z,15.60
2022-09-18T08:04:47.941Z,16.10
2022-09-18T08:07:15.437Z,16.50
2022-09-18T08:09:42.575Z,17.50
2022-09-18T08:12:09.455Z,17.80
2022-09-18T08:14:38.860Z,17.00
2022-09-18T08:17:05.761Z,16.10
2022-09-18T08:19:32.646Z,15.40
2022-09-18T08:21:59.802Z,14.70
2022-09-18T08:24:26.671Z,14.20
2022-09-18T08:26:53.908Z,13.90
2022-09-18T08:29:21.014Z,13.70
2022-09-18T08:31:48.004Z,13.80
2022-09-18T08:34:14.956Z,14.10
2022-09-18T08:36:42.012Z,14.40
2022-09-18T08:39:08.902Z,14.50
2022-09-18T08:42:00.632Z,14.50
2022-09-18T08:44:30.836Z,14.60
2022-09-18T08:47:03.379Z,14.80
2022-09-18T08:49:41.009Z,14.50
2022-09-18T08:52:15.369Z,14.10
2022-09-18T08:54:57.083Z,13.90
2022-09-18T08:57:46.516Z,13.80
2022-09-18T09:00:31.568Z,13.50
2022-09-18T09:03:15.034Z,13.20
2022-09-18T09:06:38.289Z,12.70
2022-09-18T09:09:35.685Z,12.40
2022-09-18T09:12:20.171Z,12.00
2022-09-18T09:14:58.784Z,11.90
2022-09-18T09:17:48.113Z,11.70
2022-09-18T09:20:40.509Z,11.60
2022-09-18T09:23:29.223Z,11.60
2022-09-18T09:26:05.830Z,11.50
2022-09-18T09:28:42.194Z,11.50
2022-09-18T09:31:10.951Z,11.60
2022-09-18T09:33:42.381Z,11.60
2022-09-18T09:36:25.809Z,11.70
2022-09-18T09:39:13.645Z,11.60
2022-09-18T09:42:08.765Z,11.50
2022-09-18T09:45:01.430Z,11.50
2022-09-18T09:47:37.535Z,11.40
2022-09-18T09:50:31.638Z,11.40
2022-09-18T09:53:01.320Z,11.40
2022-09-18T09:55:38.416Z,11.40
2022-09-18T09:58:34.818Z,11.40
2022-09-18T10:01:14.175Z,11.50
2022-09-18T10:03:53.396Z,11.50
2022-09-18T10:06:40.591Z,11.40
2022-09-18T10:09:19.442Z,11.40
2022-09-18T10:12:00.245Z,11.50
2022-09-18T10:14:31.405Z,11.60
2022-09-18T10:16:59.286Z,11.90
2022-09-18T10:19:34.636Z,12.00
2022-09-18T10:22:09.647Z,12.10
2022-09-18T10:24:53.978Z,12.20
2022-09-18T10:27:21.159Z,12.20
2022-09-18T10:29:49.380Z,12.20
2022-09-18T10:32:38.408Z,12.30
2022-09-18T10:35:44.645Z,12.20
2022-09-18T10:38:33.358Z,12.10
2022-09-18T10:41:31.559Z,12.20
2022-09-18T10:44:21.262Z,12.20
2022-09-18T10:46:57.078Z,12.20
2022-09-18T10:49:28.814Z,12.20
2022-09-18T10:52:35.188Z,12.10
2022-09-18T10:55:05.489Z,12.10
2022-09-18T10:57:38.766Z,12.00
2022-09-18T11:00:21.077Z,12.10
2022-09-18T11:03:17.783Z,12.30
2022-09-18T11:05:55.518Z,12.50
2022-09-18T11:08:27.778Z,12.80
2022-09-18T11:11:02.952Z,12.90
2022-09-18T11:13:31.285Z,13.10
2022-09-18T11:16:02.513Z,13.10
2022-09-18T11:18:31.939Z,13.10
2022-09-18T11:21:03.643Z,13.20
2022-09-18T11:23:36.211Z,13.10
2022-09-18T11:26:09.454Z,13.20
2022-09-18T11:28:36.454Z,13.60
2022-09-18T11:31:15.577Z,13.90
2022-09-18T11:33:52.523Z,14.20
2022-09-18T11:36:26.944Z,14.30
2022-09-18T11:38:55.020Z,14.20
2022-09-18T11:41:25.912Z,14.00
2022-09-18T11:44:32.677Z,13.90
2022-09-18T11:47:18.121Z,13.70
2022-09-18T11:49:49.680Z,13.70
2022-09-18T11:52:40.302Z,13.60
2022-09-18T11:55:26.445Z,13.60
2022-09-18T11:57:55.859Z,13.50
2022-09-18T12:00:26.134Z,13.40
2022-09-18T12:03:07.103Z,13.20
2022-09-18T12:05:57.892Z,13.00
2022-09-18T12:08:52.201Z,13.20
2022-09-18T12:11:28.910Z,13.60
2022-09-18T12:14:02.317Z,13.90
2022-09-18T12:16:51.399Z,14.50
2022-09-18T12:19:36.256Z,14.90
2022-09-18T12:22:30.263Z,15.20
2022-09-18T12:24:57.856Z,15.50
2022-09-18T12:27:40.665Z,15.60
2022-09-18T12:30:16.738Z,15.70
2022-09-18T12:33:13.595Z,15.80
2022-09-18T12:36:24.398Z,15.90
2022-09-18T12:39:26.267Z,16.00
2022-09-18T12:42:24.766Z,16.20
2022-09-18T12:45:41.895Z,16.20
2022-09-18T12:48:17.954Z,16.30
2022-09-18T12:51:15.593Z,16.60
2022-09-18T12:54:06.146Z,16.80
2022-09-18T12:56:58.670Z,16.70
2022-09-18T12:59:47.027Z,16.50
2022-09-18T13:02:27.265Z,16.00
2022-09-18T13:05:14.033Z,15.60
2022-09-18T13:08:13.227Z,15.40
2022-09-18T13:10:42.981Z,15.40
2022-09-18T13:13:52.136Z,15.60
2022-09-18T13:16:37.015Z,15.80
2022-09-18T13:19:22.568Z,15.90
2022-09-18T13:21:52.444Z,15.90
2022-09-18T13:24:31.097Z,15.90
2022-09-18T13:26:58.858Z,16.00
2022-09-18T13:29:45.492Z,16.30
2022-09-18T13:32:14.656Z,16.50
2022-09-18T13:34:59.209Z,16.40
2022-09-18T13:37:29.546Z,16.00
2022-09-18T13:40:14.644Z,15.20
2022-09-18T13:42:43.363Z,14.50
2022-09-18T13:45:25.259Z,13.90
2022-09-18T13:48:11.888Z,13.40
2022-09-18T13:51:00.066Z,13.00
2022-09-18T13:53:36.182Z,12.70
2022-09-18T13:56:04.974Z,12.70
2022-09-18T13:58:32.168Z,12.80
2022-09-18T14:01:05.042Z,13.00
2022-09-18T14:03:35.771Z,13.30
2022-09-18T14:06:36.876Z,13.40
2022-09-18T14:09:25.846Z,13.40
2022-09-18T14:11:53.575Z,13.50
2022-09-18T14:14:24.849Z,13.70
2022-09-18T14:16:52.288Z,13.70
2022-09-18T14:19:45.961Z,13.70
2022-09-18T14:22:25.577Z,13.50
2022-09-18T14:24:52.530Z,13.50
2022-09-18T14:27:34.837Z,13.50
2022-09-18T14:30:26.768Z,13.50
2022-09-18T14:32:57.324Z,13.50
2022-09-18T14:35:28.108Z,13.50
2022-09-18T14:37:55.615Z,13.50
2022-09-18T14:40:24.798Z,13.50
2022-09-18T14:42:51.848Z,13.40
2022-09-18T14:45:21.289Z,13.20
2022-09-18T14:47:48.808Z,13.20
2022-09-18T14:50:24.554Z,13.10
2022-09-18T14:52:52.469Z,13.00
2022-09-18T14:55:28.834Z,12.80
2022-09-18T14:58:00.279Z,12.60
2022-09-18T15:00:30.632Z,12.60
2022-09-18T15:03:02.092Z,12.40
2022-09-18T15:05:29.560Z,12.30
2022-09-18T15:08:02.576Z,12.10
2022-09-18T15:10:30.918Z,11.80
2022-09-18T15:12:59.453Z,11.70
2022-09-18T15:15:29.431Z,11.60
2022-09-18T15:17:57.449Z,11.50
2022-09-18T15:20:26.119Z,11.50
2022-09-18T15:22:53.928Z,11.60
2022-09-18T15:25:25.854Z,11.70
2022-09-18T15:27:55.102Z,11.80
2022-09-18T15:30:24.258Z,11.80
2022-09-18T15:33:00.317Z,11.80
2022-09-18T15:35:37.978Z,11.80
2022-09-18T15:38:13.879Z,11.90
2022-09-18T15:40:41.573Z,11.90
2022-09-18T15:43:30.130Z,11.90
2022-09-18T15:46:12.516Z,11.90
2022-09-18T15:48:39.525Z,11.90
2022-09-18T15:51:15.404Z,11.90
2022-09-18T15:54:24.698Z,11.90
2022-09-18T15:57:00.229Z,11.90
2022-09-18T15:59:34.719Z,12.00
2022-09-18T16:02:17.398Z,12.10
2022-09-18T16:04:44.560Z,12.10
2022-09-18T16:07:26.992Z,12.10
2022-09-18T16:09:54.252Z,12.10
2022-09-18T16:12:30.499Z,12.00
2022-09-18T16:15:18.889Z,12.00
2022-09-18T16:17:46.300Z,12.00
2022-09-18T16:20:29.090Z,11.90
2022-09-18T16:23:04.770Z,11.90
2022-09-18T16:25:35.827Z,11.80
2022-09-18T16:28:07.178Z,11.80
2022-09-18T16:30:37.329Z,11.80
2022-09-18T16:33:26.996Z,11.80
2022-09-18T16:36:07.312Z,11.80
2022-09-18T16:38:35.297Z,11.80
2022-09-18T16:41:02.655Z,11.70
2022-09-18T16:43:29.845Z,11.70
2022-09-18T16:45:57.041Z,11.60
2022-09-18T16:48:24.850Z,11.60
2022-09-18T16:50:52.223Z,11.50
2022-09-18T16:53:19.150Z,11.40
2022-09-18T16:55:52.919Z,11.40
2022-09-18T16:58:21.455Z,11.40
2022-09-18T17:00:48.709Z,11.40
2022-09-18T17:03:18.058Z,11.40
2022-09-18T17:05:45.574Z,11.30
2022-09-18T17:08:13.507Z,11.30
2022-09-18T17:10:44.879Z,11.30
2022-09-18T17:13:12.676Z,11.20
2022-09-18T17:15:40.206Z,11.20
2022-09-18T17:18:07.350Z,11.20
2022-09-18T17:20:34.772Z,11.20
2022-09-18T17:23:02.002Z,11.20
2022-09-18T17:25:29.611Z,11.20
2022-09-18T17:27:56.671Z,11.10
2022-09-18T17:30:24.162Z,11.10
2022-09-18T17:32:51.201Z,11.10
2022-09-18T17:35:18.230Z,11.10
2022-09-18T17:37:45.464Z,11.10
2022-09-18T17:40:12.757Z,11.10
2022-09-18T17:42:39.764Z,11.10
2022-09-18T17:45:07.580Z,11.10
2022-09-18T17:47:34.696Z,11.10
2022-09-18T17:50:01.743Z,11.00
2022-09-18T17:52:29.238Z,11.00
2022-09-18T17:54:56.153Z,11.10
2022-09-18T17:57:23.147Z,11.00
2022-09-18T17:59:51.452Z,11.00
2022-09-18T18:02:18.415Z,11.00
2022-09-18T18:04:45.276Z,11.00
2022-09-18T18:07:12.434Z,11.00
2022-09-18T18:09:41.035Z,11.00
2022-09-18T18:12:07.964Z,11.00
2022-09-18T18:14:35.091Z,10.90
2022-09-18T18:17:02.112Z,10.90
2022-09-18T18:19:29.051Z,10.90
2022-09-18T18:21:56.632Z,10.80
2022-09-18T18:24:23.575Z,10.70
2022-09-18T18:26:50.484Z,10.60
2022-09-18T18:29:19.115Z,10.40
2022-09-18T18:31:48.246Z,10.30
2022-09-18T18:34:17.143Z,10.20
2022-09-18T18:36:44.233Z,10.10
2022-09-18T18:39:13.020Z,10.00
2022-09-18T18:41:41.193Z,9.90
2022-09-18T18:44:09.944Z,9.80
2022-09-18T18:46:37.192Z,9.70
2022-09-18T18:49:09.829Z,9.70
2022-09-18T18:51:43.747Z,9.60
2022-09-18T18:54:11.535Z,9.50
2022-09-18T18:56:39.294Z,9.40
2022-09-18T18:59:10.990Z,9.30
2022-09-18T19:01:39.356Z,9.20
2022-09-18T19:04:09.534Z,9.10
2022-09-18T19:06:39.204Z,9.10
2022-09-18T19:09:21.225Z,9.00
2022-09-18T19:11:50.131Z,9.00
2022-09-18T19:14:20.414Z,8.90
2022-09-18T19:16:48.379Z,8.90
2022-09-18T19:19:17.832Z,8.90
2022-09-18T19:21:45.093Z,8.80
2022-09-18T19:24:12.443Z,8.80
2022-09-18T19:26:42.427Z,8.70
2022-09-18T19:29:12.687Z,8.70
2022-09-18T19:31:41.224Z,8.70
2022-09-18T19:34:11.849Z,8.60
2022-09-18T19:36:39.073Z,8.60
2022-09-18T19:39:07.900Z,8.60
2022-09-18T19:41:37.602Z,8.50
2022-09-18T19:44:10.140Z,8.50
2022-09-18T19:46:37.449Z,8.40
2022-09-18T19:49:04.455Z,8.40
2022-09-18T19:51:33.809Z,8.40
2022-09-18T19:54:01.138Z,8.30
2022-09-18T19:56:42.691Z,8.30
2022-09-18T19:59:10.432Z,8.30
2022-09-18T20:01:37.421Z,8.20
2022-09-18T20:04:04.734Z,8.20
2022-09-18T20:06:33.022Z,8.20
2022-09-18T20:09:01.911Z,8.20
2022-09-18T20:11:29.201Z,8.10
2022-09-18T20:13:56.289Z,8.10
2022-09-18T20:16:23.253Z,8.10
2022-09-18T20:18:50.215Z,8.10
2022-09-18T20:21:18.587Z,8.10
2022-09-18T20:23:45.728Z,8.10
2022-09-18T20:26:18.041Z,8.00
2022-09-18T20:28:45.213Z,8.00
2022-09-18T20:31:14.682Z,8.00
2022-09-18T20:33:41.794Z,7.90
2022-09-18T20:36:11.458Z,7.90
2022-09-18T20:38:40.950Z,7.80
2022-09-18T20:41:12.825Z,7.80
2022-09-18T20:43:41.832Z,7.80
2022-09-18T20:46:15.861Z,7.80
2022-09-18T20:48:52.812Z,7.80
2022-09-18T20:51:22.424Z,7.70
2022-09-18T20:53:50.637Z,7.70
2022-09-18T20:56:21.538Z,7.70
2022-09-18T20:58:51.629Z,7.60
2022-09-18T21:01:21.740Z,7.60
2022-09-18T21:03:56.540Z,7.60
2022-09-18T21:06:25.778Z,7.60
2022-09-18T21:08:54.487Z,7.50
2022-09-18T21:11:25.936Z,7.50
2022-09-18T21:14:03.944Z,7.50
2022-09-18T21:16:35.220Z,7.50
2022-09-18T21:19:04.980Z,7.50
2022-09-18T21:21:36.526Z,7.50
2022-09-18T21:24:04.316Z,7.40
2022-09-18T21:26:38.978Z,7.40
2022-09-18T21:29:14.852Z,7.40
2022-09-18T21:31:42.937Z,7.30
2022-09-18T21:34:16.042Z,7.30
2022-09-18T21:36:45.068Z,7.30
2022-09-18T21:39:13.693Z,7.30
2022-09-18T21:41:45.971Z,7.20
2022-09-18T21:44:18.100Z,7.30
2022-09-18T21:46:45.701Z,7.30
2022-09-18T21:49:14.914Z,7.20
2022-09-18T21:51:42.863Z,7.20
2022-09-18T21:54:15.214Z,7.30
2022-09-18T21:56:44.237Z,7.40
2022-09-18T21:59:12.670Z,7.50
2022-09-18T22:01:41.674Z,7.50
2022-09-18T22:04:09.913Z,7.50
2022-09-18T22:06:44.206Z,7.40
2022-09-18T22:09:19.558Z,7.40
2022-09-18T22:11:48.529Z,7.40
2022-09-18T22:14:18.230Z,7.40
2022-09-18T22:16:47.109Z,7.40
2022-09-18T22:19:15.728Z,7.40
2022-09-18T22:21:45.140Z,7.40
2022-09-18T22:24:15.905Z,7.40
2022-09-18T22:26:45.532Z,7.30
2022-09-18T22:29:16.134Z,7.40
2022-09-18T22:31:46.559Z,7.40
2022-09-18T22:34:16.118Z,7.40
2022-09-18T22:36:44.016Z,7.50
2022-09-18T22:39:15.944Z,7.60
2022-09-18T22:41:43.637Z,7.70
2022-09-18T22:44:11.319Z,7.80
2022-09-18T22:46:42.126Z,7.80
2022-09-18T22:49:11.870Z,7.90
2022-09-18T22:51:39.953Z,8.00
2022-09-18T22:54:08.368Z,8.10
2022-09-18T22:56:40.766Z,8.20
2022-09-18T22:59:09.988Z,8.20
2022-09-18T23:01:46.335Z,8.30
2022-09-18T23:04:13.536Z,8.30
2022-09-18T23:06:40.635Z,8.30
2022-09-18T23:09:07.630Z,8.30
2022-09-18T23:11:36.919Z,8.40
2022-09-18T23:14:07.342Z,8.40
2022-09-18T23:16:36.296Z,8.40
2022-09-18T23:19:06.770Z,8.40
2022-09-18T23:21:35.520Z,8.40
2022-09-18T23:24:08.718Z,8.40
2022-09-18T23:26:41.889Z,8.40
2022-09-18T23:29:18.268Z,8.30
2022-09-18T23:31:47.203Z,8.20
2022-09-18T23:34:17.304Z,8.00
2022-09-18T23:36:46.594Z,7.90
2022-09-18T23:39:22.298Z,7.80
2022-09-18T23:41:49.381Z,7.70
2022-09-18T23:44:19.134Z,7.50
2022-09-18T23:46:47.043Z,7.40
2022-09-18T23:49:14.967Z,7.40
2022-09-18T23:51:48.804Z,7.30
2022-09-18T23:54:19.457Z,7.20
2022-09-18T23:56:47.572Z,7.10
2022-09-18T23:59:19.566Z,7.10
